createdAt,value
2022-08-04T00:01:21.624Z,91.00
2022-08-04T00:04:33.703Z,91.00
2022-08-04T00:07:49.587Z,91.20
2022-08-04T00:10:56.531Z,91.30
2022-08-04T00:14:05.026Z,91.40
2022-08-04T00:17:09.302Z,91.70
2022-08-04T00:20:17.664Z,91.70
2022-08-04T00:23:24.258Z,92.10
2022-08-04T00:26:27.783Z,92.30
2022-08-04T00:29:32.135Z,92.30
2022-08-04T00:32:35.568Z,92.30
2022-08-04T00:35:40.776Z,92.40
2022-08-04T00:38:46.118Z,92.50
2022-08-04T00:42:01.048Z,92.60
2022-08-04T00:46:16.729Z,92.70
2022-08-04T00:49:43.529Z,92.70
2022-08-04T00:53:03.030Z,92.80
2022-08-04T00:56:23.194Z,92.90
2022-08-04T00:59:41.649Z,93.00
2022-08-04T01:02:59.044Z,93.10
2022-08-04T01:06:12.618Z,93.10
2022-08-04T01:09:32.864Z,93.20
2022-08-04T01:13:03.158Z,93.50
2022-08-04T01:16:18.497Z,93.70
2022-08-04T01:19:49.097Z,93.80
2022-08-04T01:23:19.858Z,93.80
2022-08-04T01:26:57.756Z,93.80
2022-08-04T01:30:03.536Z,93.80
2022-08-04T01:33:13.399Z,93.70
2022-08-04T01:36:16.589Z,93.60
2022-08-04T01:39:39.393Z,93.60
2022-08-04T01:42:45.658Z,93.60
2022-08-04T01:45:52.805Z,94.00
2022-08-04T01:48:57.051Z,94.00
2022-08-04T01:52:00.644Z,94.00
2022-08-04T01:55:06.830Z,94.30
2022-08-04T01:58:11.667Z,94.00
2022-08-04T02:01:16.218Z,93.90
2022-08-04T02:04:23.324Z,94.10
2022-08-04T02:07:41.593Z,94.10
2022-08-04T02:11:05.875Z,94.10
2022-08-04T02:14:40.656Z,94.10
2022-08-04T02:17:55.781Z,94.20
2022-08-04T02:21:00.114Z,94.20
2022-08-04T02:24:08.514Z,94.20
2022-08-04T02:27:14.495Z,94.40
2022-08-04T02:30:19.786Z,94.30
2022-08-04T02:33:28.136Z,94.40
2022-08-04T02:36:35.989Z,94.50
2022-08-04T02:39:48.353Z,94.80
2022-08-04T02:42:54.875Z,94.60
2022-08-04T02:45:59.220Z,94.60
2022-08-04T02:49:07.895Z,94.70
2022-08-04T02:52:12.692Z,94.90
2022-08-04T02:55:18.343Z,95.00
2022-08-04T02:58:23.148Z,95.00
2022-08-04T03:01:26.987Z,95.00
2022-08-04T03:04:56.675Z,95.10
2022-08-04T03:08:31.283Z,94.90
2022-08-04T03:11:52.387Z,95.00
2022-08-04T03:15:22.897Z,94.90
2022-08-04T03:19:09.774Z,94.90
2022-08-04T03:23:11.536Z,94.90
2022-08-04T03:26:34.687Z,95.00
2022-08-04T03:30:11.960Z,95.10
2022-08-04T03:33:45.147Z,95.10
2022-08-04T03:37:12.967Z,95.10
2022-08-04T03:40:43.788Z,94.80
2022-08-04T03:44:22.420Z,94.90
2022-08-04T03:47:42.341Z,94.90
2022-08-04T03:51:35.204Z,95.00
2022-08-04T03:55:02.508Z,95.10
2022-08-04T03:58:33.743Z,95.00
2022-08-04T04:02:02.041Z,94.80
2022-08-04T04:05:31.235Z,94.90
2022-08-04T04:09:00.170Z,94.90
2022-08-04T04:12:36.506Z,94.90
2022-08-04T04:16:00.925Z,94.90
2022-08-04T04:19:23.125Z,94.90
2022-08-04T04:22:42.463Z,94.80
2022-08-04T04:25:57.738Z,94.80
2022-08-04T04:29:22.805Z,94.70
2022-08-04T04:32:39.973Z,94.60
2022-08-04T04:35:50.681Z,94.40
2022-08-04T04:39:14.577Z,94.40
2022-08-04T04:42:35.944Z,94.30
2022-08-04T04:45:47.369Z,94.00
2022-08-04T04:48:57.985Z,94.20
2022-08-04T04:52:08.124Z,93.70
2022-08-04T04:55:18.527Z,93.40
2022-08-04T04:58:23.156Z,93.30
2022-08-04T05:01:51.597Z,92.90
2022-08-04T05:05:21.817Z,92.70
2022-08-04T05:09:00.418Z,92.60
2022-08-04T05:14:33.128Z,92.30
2022-08-04T05:16:06.445Z,92.30
2022-08-04T05:19:24.916Z,92.20
2022-08-04T05:22:33.767Z,92.10
2022-08-04T05:25:40.443Z,91.80
2022-08-04T05:28:49.919Z,91.60
2022-08-04T05:31:55.911Z,91.40
2022-08-04T05:35:03.883Z,91.30
2022-08-04T05:38:11.690Z,90.90
2022-08-04T05:41:15.327Z,90.50
2022-08-04T05:44:20.525Z,90.40
2022-08-04T05:47:26.048Z,90.40
2022-08-04T05:50:29.890Z,90.10
2022-08-04T05:53:38.773Z,89.50
2022-08-04T05:56:43.458Z,87.70
2022-08-04T05:59:47.579Z,86.40
2022-08-04T06:02:52.140Z,85.60
2022-08-04T06:05:57.945Z,82.00
2022-08-04T06:09:02.488Z,79.60
2022-08-04T06:12:09.942Z,77.50
2022-08-04T06:15:15.892Z,75.00
2022-08-04T06:18:33.110Z,73.30
2022-08-04T06:21:41.618Z,71.30
2022-08-04T06:24:48.818Z,68.80
2022-08-04T06:27:52.796Z,67.10
2022-08-04T06:32:30.927Z,64.30
2022-08-04T06:34:27.743Z,60.90
2022-08-04T06:37:43.560Z,58.90
2022-08-04T06:40:48.942Z,57.40
2022-08-04T06:43:53.437Z,55.80
2022-08-04T06:46:57.248Z,53.50
2022-08-04T06:51:24.664Z,51.50
2022-08-04T06:53:25.304Z,48.80
2022-08-04T06:56:32.188Z,46.00
2022-08-04T06:59:35.861Z,45.70
2022-08-04T07:02:43.658Z,44.00
2022-08-04T07:05:48.770Z,43.10
2022-08-04T07:08:52.699Z,42.20
2022-08-04T07:11:57.284Z,41.50
2022-08-04T07:15:00.824Z,40.20
2022-08-04T07:18:05.235Z,38.70
2022-08-04T07:21:08.988Z,37.80
2022-08-04T07:24:12.190Z,36.40
2022-08-04T07:27:18.733Z,34.40
2022-08-04T07:30:44.996Z,33.00
2022-08-04T07:34:17.289Z,33.70
2022-08-04T07:37:12.481Z,31.70
2022-08-04T07:40:15.691Z,31.30
2022-08-04T07:43:20.697Z,31.50
2022-08-04T07:46:24.095Z,32.10
2022-08-04T07:49:55.553Z,31.80
2022-08-04T07:53:15.313Z,30.60
2022-08-04T07:56:16.401Z,29.40
2022-08-04T07:59:21.145Z,28.10
2022-08-04T08:02:25.170Z,27.40
2022-08-04T08:05:30.123Z,26.60
2022-08-04T08:08:33.357Z,26.30
2022-08-04T08:12:35.882Z,26.40
2022-08-04T08:15:01.625Z,26.70
2022-08-04T08:18:05.613Z,25.90
2022-08-04T08:21:08.753Z,25.40
2022-08-04T08:24:13.043Z,24.80
2022-08-04T08:27:16.366Z,24.70
2022-08-04T08:30:20.903Z,25.30
2022-08-04T08:33:24.847Z,25.80
2022-08-04T08:36:34.722Z,25.80
2022-08-04T08:39:42.249Z,25.60
2022-08-04T08:44:04.701Z,26.30
2022-08-04T08:46:56.922Z,26.60
2022-08-04T08:50:17.792Z,27.30
2022-08-04T08:53:53.193Z,28.10
2022-08-04T08:57:05.120Z,29.10
2022-08-04T09:00:18.164Z,31.30
2022-08-04T09:04:00.748Z,32.20
2022-08-04T09:07:22.900Z,33.90
2022-08-04T09:10:33.323Z,34.90
2022-08-04T09:13:42.620Z,35.90
2022-08-04T09:16:54.254Z,36.90
2022-08-04T09:20:03.980Z,38.10
2022-08-04T09:23:19.881Z,39.00
2022-08-04T09:26:31.713Z,39.60
2022-08-04T09:29:41.447Z,40.00
2022-08-04T09:32:53.613Z,40.70
2022-08-04T09:36:02.577Z,41.00
2022-08-04T09:39:15.881Z,41.20
2022-08-04T09:42:29.274Z,41.00
2022-08-04T09:45:43.167Z,41.60
2022-08-04T09:48:56.208Z,41.90
2022-08-04T09:52:09.142Z,42.20
2022-08-04T09:55:20.099Z,42.10
2022-08-04T09:58:33.706Z,42.70
2022-08-04T10:01:39.741Z,42.50
2022-08-04T10:04:44.920Z,42.70
2022-08-04T10:08:15.608Z,42.50
2022-08-04T10:11:30.273Z,42.60
2022-08-04T10:14:40.787Z,43.00
2022-08-04T10:18:01.228Z,42.90
2022-08-04T10:21:15.485Z,42.40
2022-08-04T10:24:33.994Z,42.60
2022-08-04T10:27:42.401Z,43.30
2022-08-04T10:30:51.022Z,43.70
2022-08-04T10:33:59.790Z,43.60
2022-08-04T10:37:14.078Z,43.30
2022-08-04T10:40:43.118Z,43.40
2022-08-04T10:43:54.251Z,43.30
2022-08-04T10:47:01.939Z,44.10
2022-08-04T10:50:06.429Z,44.10
2022-08-04T10:53:18.449Z,43.90
2022-08-04T10:56:30.960Z,43.70
2022-08-04T10:59:41.957Z,43.50
2022-08-04T11:02:59.877Z,44.00
2022-08-04T11:06:03.668Z,44.30
2022-08-04T11:09:07.192Z,44.90
2022-08-04T11:12:26.537Z,44.70
2022-08-04T11:15:35.268Z,44.60
2022-08-04T11:18:47.845Z,44.90
2022-08-04T11:21:57.402Z,44.80
2022-08-04T11:25:09.592Z,44.30
2022-08-04T11:28:24.588Z,44.40
2022-08-04T11:31:32.687Z,44.20
2022-08-04T11:34:36.773Z,44.40
2022-08-04T11:37:47.737Z,43.70
2022-08-04T11:41:02.639Z,44.20
2022-08-04T11:44:12.565Z,44.00
2022-08-04T11:47:26.288Z,43.80
2022-08-04T11:50:38.432Z,43.80
2022-08-04T11:53:43.811Z,43.80
2022-08-04T11:56:47.479Z,43.60
2022-08-04T11:59:53.747Z,43.80
2022-08-04T12:03:12.198Z,44.10
2022-08-04T12:06:21.619Z,43.50
2022-08-04T12:09:32.771Z,43.70
2022-08-04T12:12:42.158Z,44.00
2022-08-04T12:15:58.458Z,44.00
2022-08-04T12:19:06.767Z,44.20
2022-08-04T12:22:15.561Z,44.40
2022-08-04T12:25:25.819Z,45.20
2022-08-04T12:29:06.899Z,45.10
2022-08-04T12:32:05.488Z,45.30
2022-08-04T12:35:15.008Z,45.30
2022-08-04T12:38:18.148Z,45.30
2022-08-04T12:41:27.150Z,45.40
2022-08-04T12:44:37.564Z,45.20
2022-08-04T12:47:43.888Z,44.90
2022-08-04T12:50:50.252Z,45.30
2022-08-04T12:53:53.428Z,45.30
2022-08-04T12:57:00.395Z,45.30
2022-08-04T13:00:03.780Z,45.60
2022-08-04T13:03:11.032Z,46.20
2022-08-04T13:06:21.306Z,46.30
2022-08-04T13:09:33.145Z,46.20
2022-08-04T13:12:37.195Z,45.40
2022-08-04T13:15:46.692Z,45.60
2022-08-04T13:18:52.655Z,45.60
2022-08-04T13:22:02.734Z,46.10
2022-08-04T13:26:40.299Z,45.00
2022-08-04T13:28:32.817Z,45.00
2022-08-04T13:31:37.733Z,45.10
2022-08-04T13:34:49.171Z,44.60
2022-08-04T13:37:58.256Z,44.40
2022-08-04T13:41:03.881Z,44.10
2022-08-04T13:44:17.841Z,44.30
2022-08-04T13:47:28.106Z,45.20
2022-08-04T13:50:35.291Z,45.00
2022-08-04T13:53:40.394Z,45.90
2022-08-04T13:56:50.801Z,46.30
2022-08-04T13:59:58.400Z,47.10
2022-08-04T14:03:22.986Z,47.10
2022-08-04T14:06:32.016Z,47.20
2022-08-04T14:09:36.071Z,46.60
2022-08-04T14:12:47.306Z,46.60
2022-08-04T14:15:57.603Z,46.90
2022-08-04T14:19:06.386Z,47.50
2022-08-04T14:22:29.749Z,47.80
2022-08-04T14:25:35.475Z,48.00
2022-08-04T14:29:26.401Z,47.90
2022-08-04T14:32:06.105Z,48.20
2022-08-04T14:35:16.545Z,48.30
2022-08-04T14:38:21.050Z,47.60
2022-08-04T14:41:27.580Z,48.00
2022-08-04T14:44:30.751Z,48.10
2022-08-04T14:47:41.705Z,47.70
2022-08-04T14:50:56.196Z,47.80
2022-08-04T14:54:05.032Z,47.60
2022-08-04T14:57:10.995Z,47.30
2022-08-04T15:00:24.983Z,47.40
2022-08-04T15:03:30.351Z,48.00
2022-08-04T15:06:35.572Z,47.70
2022-08-04T15:09:40.634Z,47.70
2022-08-04T15:12:44.305Z,47.70
2022-08-04T15:16:06.896Z,48.20
2022-08-04T15:19:11.278Z,48.20
2022-08-04T15:22:17.314Z,47.80
2022-08-04T15:25:22.394Z,47.50
2022-08-04T15:28:28.994Z,47.20
2022-08-04T15:32:07.675Z,47.00
2022-08-04T15:35:06.692Z,46.90
2022-08-04T15:38:13.690Z,47.20
2022-08-04T15:41:27.914Z,47.10
2022-08-04T15:45:04.308Z,47.20
2022-08-04T15:48:34.564Z,47.90
2022-08-04T15:51:38.261Z,47.60
2022-08-04T15:54:52.426Z,47.40
2022-08-04T15:58:01.633Z,47.10
2022-08-04T16:01:18.015Z,47.20
2022-08-04T16:04:26.133Z,47.10
2022-08-04T16:07:57.502Z,47.30
2022-08-04T16:11:00.622Z,46.90
2022-08-04T16:14:11.657Z,47.10
2022-08-04T16:17:19.364Z,47.10
2022-08-04T16:20:24.552Z,47.40
2022-08-04T16:24:00.732Z,47.50
2022-08-04T16:27:06.573Z,47.80
2022-08-04T16:30:15.010Z,47.70
2022-08-04T16:33:18.213Z,47.70
2022-08-04T16:36:57.903Z,47.70
2022-08-04T16:40:38.094Z,47.70
2022-08-04T16:43:41.514Z,48.00
2022-08-04T16:47:08.921Z,48.30
2022-08-04T16:50:09.725Z,48.20
2022-08-04T16:53:53.926Z,48.40
2022-08-04T16:56:36.754Z,48.60
2022-08-04T16:59:40.220Z,48.40
2022-08-04T17:02:46.069Z,48.70
2022-08-04T17:05:49.500Z,49.00
2022-08-04T17:08:52.636Z,49.60
2022-08-04T17:11:56.962Z,49.30
2022-08-04T17:15:00.087Z,49.80
2022-08-04T17:18:18.734Z,50.00
2022-08-04T17:21:24.267Z,50.10
2022-08-04T17:24:27.407Z,50.20
2022-08-04T17:28:19.241Z,50.60
2022-08-04T17:30:56.119Z,50.80
2022-08-04T17:34:14.260Z,50.80
2022-08-04T17:37:40.961Z,50.80
2022-08-04T17:40:58.116Z,50.80
2022-08-04T17:44:06.911Z,50.90
2022-08-04T17:47:18.148Z,51.00
2022-08-04T17:50:30.301Z,51.20
2022-08-04T17:54:01.406Z,51.50
2022-08-04T17:56:59.398Z,51.60
2022-08-04T18:00:02.527Z,52.00
2022-08-04T18:03:05.681Z,52.40
2022-08-04T18:06:19.284Z,52.70
2022-08-04T18:09:57.765Z,52.70
2022-08-04T18:12:54.182Z,53.00
2022-08-04T18:16:03.501Z,53.30
2022-08-04T18:19:11.363Z,53.70
2022-08-04T18:22:27.965Z,53.80
2022-08-04T18:25:51.486Z,54.00
2022-08-04T18:28:54.840Z,54.30
2022-08-04T18:31:58.208Z,55.00
2022-08-04T18:35:03.526Z,55.30
2022-08-04T18:38:22.675Z,55.60
2022-08-04T18:41:27.861Z,55.80
2022-08-04T18:44:31.367Z,56.00
2022-08-04T18:47:54.494Z,56.40
2022-08-04T18:51:09.487Z,56.90
2022-08-04T18:54:16.163Z,56.90
2022-08-04T18:57:32.428Z,57.20
2022-08-04T19:00:45.034Z,58.00
2022-08-04T19:03:53.952Z,58.60
2022-08-04T19:07:23.114Z,59.00
2022-08-04T19:10:26.662Z,59.60
2022-08-04T19:13:34.836Z,60.10
2022-08-04T19:16:40.808Z,61.00
2022-08-04T19:19:47.605Z,64.70
2022-08-04T19:24:11.125Z,66.50
2022-08-04T19:26:27.662Z,67.00
2022-08-04T19:29:37.151Z,67.30
2022-08-04T19:32:41.664Z,68.40
2022-08-04T19:35:52.076Z,67.40
2022-08-04T19:38:55.677Z,67.30
2022-08-04T19:42:06.025Z,67.40
2022-08-04T19:45:41.680Z,67.90
2022-08-04T19:48:59.176Z,68.00
2022-08-04T19:52:03.399Z,69.40
2022-08-04T19:55:10.018Z,69.90
2022-08-04T19:58:15.779Z,69.90
2022-08-04T20:01:33.605Z,70.00
2022-08-04T20:04:41.427Z,70.30
2022-08-04T20:07:45.954Z,70.70
2022-08-04T20:14:15.017Z,71.20
2022-08-04T20:17:18.188Z,71.70
2022-08-04T20:20:21.576Z,72.20
2022-08-04T20:23:28.685Z,72.50
2022-08-04T20:26:49.629Z,73.20
2022-08-04T20:29:55.767Z,73.10
2022-08-04T20:33:01.016Z,73.80
2022-08-04T20:36:05.483Z,73.80
2022-08-04T20:39:11.067Z,73.80
2022-08-04T20:42:18.941Z,74.50
2022-08-04T20:45:57.234Z,74.50
2022-08-04T20:48:55.882Z,75.20
2022-08-04T20:51:59.380Z,75.40
2022-08-04T20:55:02.864Z,75.40
2022-08-04T20:58:06.192Z,75.80
2022-08-04T21:01:14.468Z,76.10
2022-08-04T21:04:31.674Z,76.60
2022-08-04T21:07:36.485Z,76.80
2022-08-04T21:10:47.404Z,77.00
2022-08-04T21:13:52.798Z,77.40
2022-08-04T21:16:58.057Z,77.40
2022-08-04T21:20:01.748Z,78.20
2022-08-04T21:23:07.359Z,78.30
2022-08-04T21:26:10.813Z,78.50
2022-08-04T21:29:14.194Z,78.50
2022-08-04T21:32:21.746Z,78.90
2022-08-04T21:35:37.861Z,79.20
2022-08-04T21:38:51.337Z,79.50
2022-08-04T21:42:29.624Z,79.90
2022-08-04T21:45:18.393Z,80.50
2022-08-04T21:48:27.331Z,80.70
2022-08-04T21:51:58.331Z,81.60
2022-08-04T21:55:01.980Z,82.20
2022-08-04T21:58:07.136Z,82.00
2022-08-04T22:01:13.470Z,82.30
2022-08-04T22:04:26.207Z,82.60
2022-08-04T22:07:49.750Z,82.60
2022-08-04T22:10:54.152Z,82.50
2022-08-04T22:14:11.624Z,83.00
2022-08-04T22:17:18.344Z,83.50
2022-08-04T22:20:27.681Z,83.80
2022-08-04T22:23:45.190Z,83.80
2022-08-04T22:26:49.325Z,84.00
2022-08-04T22:29:54.140Z,84.00
2022-08-04T22:32:57.269Z,84.30
2022-08-04T22:36:01.761Z,84.80
2022-08-04T22:39:07.669Z,85.20
2022-08-04T22:42:13.395Z,85.60
2022-08-04T22:45:16.638Z,85.80
2022-08-04T22:48:19.771Z,86.00
2022-08-04T22:51:27.127Z,86.30
2022-08-04T22:54:31.754Z,85.90
2022-08-04T22:57:43.582Z,86.30
2022-08-04T23:00:58.551Z,86.50
2022-08-04T23:04:02.127Z,86.80
2022-08-04T23:07:09.420Z,87.10
2022-08-04T23:10:12.908Z,86.80
2022-08-04T23:13:16.184Z,86.70
2022-08-04T23:16:20.385Z,86.40
2022-08-04T23:19:30.118Z,86.30
2022-08-04T23:22:41.806Z,86.80
2022-08-04T23:26:07.406Z,87.50
2022-08-04T23:29:09.904Z,87.40
2022-08-04T23:32:12.978Z,87.90
2022-08-04T23:35:16.214Z,88.00
2022-08-04T23:38:31.579Z,88.80
2022-08-04T23:41:53.865Z,89.10
2022-08-04T23:44:58.585Z,89.40
2022-08-04T23:48:15.793Z,89.80
2022-08-04T23:51:22.579Z,89.60
2022-08-04T23:54:27.229Z,90.00
2022-08-04T23:58:05.789Z,90.00
